createdAt,value
2022-11-06T00:01:22.576Z,9.90
2022-11-06T00:04:08.459Z,9.90
2022-11-06T00:06:53.941Z,9.80
2022-11-06T00:09:39.677Z,9.80
2022-11-06T00:12:25.116Z,9.80
2022-11-06T00:15:11.511Z,9.80
2022-11-06T00:17:57.649Z,9.80
2022-11-06T00:20:43.388Z,9.90
2022-11-06T00:23:29.283Z,9.80
2022-11-06T00:26:17.911Z,9.80
2022-11-06T00:29:04.741Z,9.80
2022-11-06T00:31:50.713Z,9.80
2022-11-06T00:34:36.608Z,9.80
2022-11-06T00:37:22.451Z,9.80
2022-11-06T00:40:08.861Z,9.80
2022-11-06T00:42:55.816Z,9.80
2022-11-06T00:45:41.493Z,9.80
2022-11-06T00:48:27.915Z,9.80
2022-11-06T00:51:16.972Z,9.80
2022-11-06T00:54:04.613Z,9.80
2022-11-06T00:56:50.301Z,9.80
2022-11-06T00:59:36.207Z,9.80
2022-11-06T01:02:21.819Z,9.80
2022-11-06T01:05:07.728Z,9.70
2022-11-06T01:07:53.427Z,9.70
2022-11-06T01:10:39.168Z,9.70
2022-11-06T01:13:24.780Z,9.60
2022-11-06T01:16:13.567Z,9.60
2022-11-06T01:18:59.931Z,9.60
2022-11-06T01:21:48.708Z,9.60
2022-11-06T01:24:35.022Z,9.60
2022-11-06T01:27:26.268Z,9.60
2022-11-06T01:30:13.025Z,9.60
2022-11-06T01:32:58.748Z,9.60
2022-11-06T01:35:46.431Z,9.50
2022-11-06T01:38:31.958Z,9.50
2022-11-06T01:41:24.128Z,9.50
2022-11-06T01:44:40.982Z,9.50
2022-11-06T01:47:28.974Z,9.40
2022-11-06T01:50:16.668Z,9.40
2022-11-06T01:53:02.935Z,9.40
2022-11-06T01:55:53.948Z,9.40
2022-11-06T01:58:43.640Z,9.30
2022-11-06T02:01:31.489Z,9.30
2022-11-06T02:04:27.333Z,9.20
2022-11-06T02:07:13.066Z,9.20
2022-11-06T02:09:58.780Z,9.20
2022-11-06T02:13:22.551Z,9.10
2022-11-06T02:16:16.259Z,9.10
2022-11-06T02:19:07.828Z,9.00
2022-11-06T02:22:10.697Z,9.00
2022-11-06T02:24:59.658Z,9.00
2022-11-06T02:27:52.074Z,8.90
2022-11-06T02:30:44.962Z,8.90
2022-11-06T02:33:35.168Z,8.90
2022-11-06T02:36:28.067Z,8.90
2022-11-06T02:39:18.237Z,8.80
2022-11-06T02:42:07.742Z,8.80
2022-11-06T02:44:57.400Z,8.90
2022-11-06T02:47:46.391Z,8.80
2022-11-06T02:50:35.707Z,8.80
2022-11-06T02:53:25.904Z,8.80
2022-11-06T02:56:18.353Z,8.80
2022-11-06T02:59:11.296Z,8.70
2022-11-06T03:02:03.682Z,8.70
2022-11-06T03:05:17.055Z,8.70
2022-11-06T03:08:07.834Z,8.70
2022-11-06T03:11:05.704Z,8.70
2022-11-06T03:14:13.268Z,8.70
2022-11-06T03:17:16.373Z,8.60
2022-11-06T03:20:01.979Z,8.70
2022-11-06T03:23:06.530Z,8.70
2022-11-06T03:26:04.324Z,9.10
2022-11-06T03:28:57.395Z,8.70
2022-11-06T03:32:04.853Z,8.70
2022-11-06T03:35:01.636Z,8.70
2022-11-06T03:37:51.629Z,8.70
2022-11-06T03:40:43.857Z,8.70
2022-11-06T03:43:35.849Z,8.70
2022-11-06T03:46:25.297Z,8.70
2022-11-06T03:49:16.575Z,8.60
2022-11-06T03:52:15.561Z,8.60
2022-11-06T03:55:17.503Z,8.60
2022-11-06T03:58:23.298Z,8.60
2022-11-06T04:01:13.584Z,8.60
2022-11-06T04:04:09.091Z,8.60
2022-11-06T04:07:02.988Z,8.60
2022-11-06T04:10:15.758Z,8.60
2022-11-06T04:13:20.051Z,8.60
2022-11-06T04:16:07.829Z,8.70
2022-11-06T04:18:53.685Z,8.70
2022-11-06T04:22:06.714Z,8.70
2022-11-06T04:25:50.591Z,8.60
2022-11-06T04:28:46.690Z,8.60
2022-11-06T04:31:32.207Z,8.50
2022-11-06T04:34:27.828Z,8.50
2022-11-06T04:37:20.404Z,8.40
2022-11-06T04:40:26.159Z,8.40
2022-11-06T04:43:35.352Z,8.40
2022-11-06T04:46:27.509Z,8.30
2022-11-06T04:49:14.216Z,8.20
2022-11-06T04:52:07.872Z,8.20
2022-11-06T04:54:55.189Z,8.20
2022-11-06T04:57:40.735Z,8.20
2022-11-06T05:00:26.334Z,8.20
2022-11-06T05:03:12.409Z,8.10
2022-11-06T05:05:58.315Z,8.00
2022-11-06T05:08:44.140Z,7.90
2022-11-06T05:11:29.884Z,8.00
2022-11-06T05:14:15.412Z,8.00
2022-11-06T05:17:00.998Z,8.00
2022-11-06T05:19:46.552Z,7.90
2022-11-06T05:22:50.640Z,7.90
2022-11-06T05:25:40.185Z,7.90
2022-11-06T05:28:26.009Z,7.80
2022-11-06T05:31:11.899Z,7.80
2022-11-06T05:33:57.259Z,7.80
2022-11-06T05:36:42.972Z,7.80
2022-11-06T05:39:28.828Z,7.80
2022-11-06T05:42:14.122Z,7.70
2022-11-06T05:44:59.796Z,7.70
2022-11-06T05:47:45.352Z,7.70
2022-11-06T05:50:31.160Z,7.70
2022-11-06T05:53:22.268Z,7.70
2022-11-06T05:56:08.303Z,7.70
2022-11-06T05:58:54.099Z,7.60
2022-11-06T06:04:05.076Z,7.70
2022-11-06T06:06:50.621Z,7.70
2022-11-06T06:09:36.509Z,7.70
2022-11-06T06:12:23.815Z,7.70
2022-11-06T06:15:09.834Z,7.60
2022-11-06T06:17:57.229Z,7.60
2022-11-06T06:20:43.078Z,7.70
2022-11-06T06:23:28.635Z,7.70
2022-11-06T06:26:14.251Z,7.60
2022-11-06T06:28:59.781Z,7.60
2022-11-06T06:31:45.530Z,7.70
2022-11-06T06:34:31.008Z,7.80
2022-11-06T06:37:20.204Z,7.80
2022-11-06T06:40:06.777Z,7.80
2022-11-06T06:42:57.283Z,8.40
2022-11-06T06:45:42.647Z,9.30
2022-11-06T06:48:28.994Z,9.40
2022-11-06T06:51:18.446Z,9.20
2022-11-06T06:54:06.980Z,9.10
2022-11-06T06:56:52.465Z,9.00
2022-11-06T06:59:37.965Z,8.90
2022-11-06T07:02:23.481Z,8.90
2022-11-06T07:05:09.518Z,8.90
2022-11-06T07:07:55.031Z,8.90
2022-11-06T07:10:40.637Z,9.00
2022-11-06T07:13:27.613Z,9.40
2022-11-06T07:16:16.140Z,9.80
2022-11-06T07:19:02.244Z,10.30
2022-11-06T07:21:51.721Z,10.90
2022-11-06T07:24:37.581Z,11.40
2022-11-06T07:27:23.051Z,11.70
2022-11-06T07:30:09.187Z,11.90
2022-11-06T07:32:56.103Z,12.00
2022-11-06T07:35:41.987Z,12.10
2022-11-06T07:38:27.749Z,12.20
2022-11-06T07:41:14.751Z,12.20
2022-11-06T07:44:00.491Z,12.20
2022-11-06T07:46:46.144Z,12.30
2022-11-06T07:49:31.876Z,12.20
2022-11-06T07:52:17.516Z,12.30
2022-11-06T07:55:03.211Z,12.20
2022-11-06T07:57:49.637Z,12.40
2022-11-06T08:00:35.187Z,12.50
2022-11-06T08:03:21.480Z,12.50
2022-11-06T08:06:07.465Z,12.40
2022-11-06T08:08:58.620Z,12.40
2022-11-06T08:11:44.745Z,12.40
2022-11-06T08:14:30.370Z,12.40
2022-11-06T08:17:15.742Z,12.40
2022-11-06T08:20:01.280Z,12.50
2022-11-06T08:22:46.552Z,12.60
2022-11-06T08:25:33.824Z,12.70
2022-11-06T08:28:19.485Z,12.80
2022-11-06T08:31:09.083Z,12.80
2022-11-06T08:33:54.665Z,12.80
2022-11-06T08:36:49.364Z,12.80
2022-11-06T08:39:35.581Z,12.80
2022-11-06T08:42:20.886Z,12.80
2022-11-06T08:45:07.016Z,12.80
2022-11-06T08:47:53.037Z,12.60
2022-11-06T08:50:39.810Z,12.60
2022-11-06T08:53:25.738Z,12.50
2022-11-06T08:56:11.340Z,12.60
2022-11-06T08:58:57.104Z,12.70
2022-11-06T09:01:42.764Z,12.70
2022-11-06T09:04:28.597Z,12.70
2022-11-06T09:07:14.063Z,12.80
2022-11-06T09:09:59.833Z,12.80
2022-11-06T09:12:45.395Z,12.90
2022-11-06T09:15:30.651Z,13.10
2022-11-06T09:22:26.334Z,13.20
2022-11-06T09:25:12.232Z,13.30
2022-11-06T09:27:59.909Z,13.50
2022-11-06T09:30:45.665Z,13.50
2022-11-06T09:33:31.583Z,13.60
2022-11-06T09:36:17.331Z,13.70
2022-11-06T09:39:02.786Z,13.80
2022-11-06T09:42:05.145Z,13.90
2022-11-06T09:45:12.983Z,14.20
2022-11-06T09:48:36.270Z,14.30
2022-11-06T09:51:30.838Z,14.30
2022-11-06T09:54:38.220Z,14.50
2022-11-06T09:57:50.022Z,14.70
2022-11-06T10:00:35.757Z,14.90
2022-11-06T10:03:33.348Z,14.90
2022-11-06T10:06:22.160Z,15.00
2022-11-06T10:09:07.964Z,15.00
2022-11-06T10:12:16.792Z,15.00
2022-11-06T10:15:02.491Z,14.90
2022-11-06T10:18:16.572Z,14.90
2022-11-06T10:21:12.025Z,14.80
2022-11-06T10:24:03.177Z,14.90
2022-11-06T10:26:58.589Z,14.80
2022-11-06T10:29:56.120Z,14.80
2022-11-06T10:33:02.652Z,14.80
2022-11-06T10:36:06.137Z,14.70
2022-11-06T10:38:54.164Z,14.80
2022-11-06T10:41:39.959Z,14.80
2022-11-06T10:44:51.762Z,14.70
2022-11-06T10:47:43.391Z,14.80
2022-11-06T10:50:42.068Z,14.70
2022-11-06T10:53:42.093Z,14.70
2022-11-06T10:57:05.323Z,14.70
2022-11-06T10:59:51.485Z,14.70
2022-11-06T11:02:41.057Z,14.80
2022-11-06T11:05:34.329Z,14.80
2022-11-06T11:08:31.935Z,14.80
2022-11-06T11:11:26.524Z,14.80
2022-11-06T11:14:14.888Z,14.90
2022-11-06T11:17:01.864Z,14.90
2022-11-06T11:19:47.770Z,14.90
2022-11-06T11:22:33.615Z,14.90
2022-11-06T11:25:26.142Z,15.00
2022-11-06T11:28:34.017Z,15.00
2022-11-06T11:31:20.047Z,15.00
2022-11-06T11:34:15.312Z,15.10
2022-11-06T11:37:03.384Z,15.20
2022-11-06T11:39:49.071Z,15.10
2022-11-06T11:42:34.900Z,15.00
2022-11-06T11:45:21.822Z,15.00
2022-11-06T11:48:14.669Z,15.00
2022-11-06T11:51:17.365Z,15.00
2022-11-06T11:54:05.081Z,14.90
2022-11-06T11:57:05.741Z,14.80
2022-11-06T12:00:02.872Z,14.80
2022-11-06T12:02:55.153Z,14.90
2022-11-06T12:05:41.508Z,14.80
2022-11-06T12:08:27.217Z,14.80
2022-11-06T12:11:20.003Z,14.90
2022-11-06T12:14:32.303Z,14.90
2022-11-06T12:17:23.841Z,15.00
2022-11-06T12:20:17.581Z,15.00
2022-11-06T12:23:03.892Z,15.00
2022-11-06T12:26:37.235Z,15.00
2022-11-06T12:29:36.321Z,15.10
2022-11-06T12:32:41.405Z,15.20
2022-11-06T12:35:32.619Z,15.20
2022-11-06T12:38:35.600Z,14.00
2022-11-06T12:41:27.193Z,15.20
2022-11-06T12:44:14.552Z,15.10
2022-11-06T12:47:03.180Z,15.10
2022-11-06T12:50:12.200Z,15.00
2022-11-06T12:53:22.573Z,15.00
2022-11-06T12:56:38.898Z,15.00
2022-11-06T12:59:50.038Z,14.90
2022-11-06T13:02:56.605Z,14.90
2022-11-06T13:06:00.376Z,14.90
2022-11-06T13:08:48.851Z,14.90
2022-11-06T13:11:55.520Z,15.00
2022-11-06T13:15:01.373Z,15.00
2022-11-06T13:18:16.560Z,15.00
2022-11-06T13:21:10.360Z,15.10
2022-11-06T13:24:02.145Z,15.20
2022-11-06T13:26:54.520Z,15.20
2022-11-06T13:29:40.647Z,15.20
2022-11-06T13:32:29.902Z,15.30
2022-11-06T13:35:19.346Z,15.30
2022-11-06T13:38:08.576Z,15.40
2022-11-06T13:41:03.530Z,15.30
2022-11-06T13:43:53.127Z,15.30
2022-11-06T13:46:57.126Z,15.30
2022-11-06T13:50:15.963Z,15.20
2022-11-06T13:53:33.797Z,15.20
2022-11-06T13:56:57.575Z,15.20
2022-11-06T13:59:46.017Z,15.20
2022-11-06T14:03:03.736Z,15.10
2022-11-06T14:06:00.799Z,15.10
2022-11-06T14:08:48.733Z,15.00
2022-11-06T14:11:37.986Z,15.10
2022-11-06T14:14:26.313Z,15.00
2022-11-06T14:17:18.159Z,15.10
2022-11-06T14:20:26.158Z,15.00
2022-11-06T14:23:43.987Z,15.00
2022-11-06T14:26:39.436Z,15.00
2022-11-06T14:29:27.932Z,15.00
2022-11-06T14:32:19.705Z,14.90
2022-11-06T14:35:37.883Z,14.90
2022-11-06T14:38:29.546Z,14.80
2022-11-06T14:41:34.629Z,14.70
2022-11-06T14:44:26.293Z,14.70
2022-11-06T14:47:30.895Z,14.60
2022-11-06T14:50:19.986Z,14.60
2022-11-06T14:53:25.759Z,14.50
2022-11-06T14:56:20.004Z,14.50
2022-11-06T14:59:20.439Z,14.50
2022-11-06T15:02:20.835Z,14.40
2022-11-06T15:05:14.201Z,14.40
2022-11-06T15:08:07.052Z,14.40
2022-11-06T15:10:54.019Z,14.40
2022-11-06T15:13:40.008Z,14.40
2022-11-06T15:16:40.466Z,14.30
2022-11-06T15:19:39.472Z,14.30
2022-11-06T15:22:40.119Z,14.30
2022-11-06T15:25:28.189Z,14.30
2022-11-06T15:28:22.229Z,14.20
2022-11-06T15:31:14.540Z,14.20
2022-11-06T15:34:07.229Z,14.10
2022-11-06T15:37:02.420Z,14.10
2022-11-06T15:39:48.760Z,14.10
2022-11-06T15:42:36.046Z,14.00
2022-11-06T15:45:24.954Z,14.00
2022-11-06T15:48:23.512Z,13.90
2022-11-06T15:51:29.099Z,13.90
2022-11-06T15:54:36.044Z,13.80
2022-11-06T15:57:28.348Z,13.80
2022-11-06T16:00:19.096Z,13.80
2022-11-06T16:03:14.767Z,13.70
2022-11-06T16:06:05.600Z,13.60
2022-11-06T16:08:51.718Z,13.60
2022-11-06T16:11:37.675Z,13.50
2022-11-06T16:14:23.443Z,13.50
2022-11-06T16:17:17.105Z,13.40
2022-11-06T16:20:04.300Z,13.40
2022-11-06T16:22:50.191Z,13.30
2022-11-06T16:25:35.788Z,13.30
2022-11-06T16:28:23.042Z,13.20
2022-11-06T16:31:15.861Z,13.20
2022-11-06T16:34:04.101Z,13.10
2022-11-06T16:36:59.367Z,13.00
2022-11-06T16:39:49.852Z,13.00
2022-11-06T16:42:36.632Z,12.90
2022-11-06T16:45:23.088Z,12.90
2022-11-06T16:48:08.895Z,12.80
2022-11-06T16:50:57.238Z,12.80
2022-11-06T16:53:55.577Z,12.70
2022-11-06T16:56:41.063Z,12.60
2022-11-06T16:59:26.701Z,12.60
2022-11-06T17:02:25.395Z,12.50
2022-11-06T17:05:33.744Z,12.50
2022-11-06T17:08:34.922Z,12.40
2022-11-06T17:11:23.357Z,12.40
2022-11-06T17:14:17.865Z,12.30
2022-11-06T17:17:03.716Z,12.20
2022-11-06T17:19:49.408Z,12.20
2022-11-06T17:22:35.072Z,12.20
2022-11-06T17:25:20.516Z,12.10
2022-11-06T17:28:06.060Z,12.10
2022-11-06T17:30:51.721Z,12.10
2022-11-06T17:33:37.772Z,12.00
2022-11-06T17:36:27.484Z,12.00
2022-11-06T17:39:13.236Z,11.90
2022-11-06T17:41:59.224Z,11.90
2022-11-06T17:44:44.699Z,11.80
2022-11-06T17:47:30.077Z,11.80
2022-11-06T17:50:16.185Z,11.80
2022-11-06T17:53:01.807Z,11.70
2022-11-06T17:55:47.921Z,11.60
2022-11-06T17:58:34.338Z,11.60
2022-11-06T18:01:20.592Z,11.50
2022-11-06T18:04:07.508Z,11.50
2022-11-06T18:06:54.281Z,11.40
2022-11-06T18:09:40.252Z,11.40
2022-11-06T18:12:27.585Z,11.40
2022-11-06T18:15:13.300Z,11.30
2022-11-06T18:17:59.252Z,11.30
2022-11-06T18:20:46.355Z,11.30
2022-11-06T18:23:32.305Z,11.20
2022-11-06T18:26:21.819Z,11.20
2022-11-06T18:29:08.610Z,11.20
2022-11-06T18:31:54.497Z,11.20
2022-11-06T18:34:40.425Z,11.20
2022-11-06T18:37:26.568Z,11.10
2022-11-06T18:40:12.900Z,11.10
2022-11-06T18:42:58.249Z,11.10
2022-11-06T18:45:44.424Z,11.10
2022-11-06T18:48:32.386Z,11.00
2022-11-06T18:51:34.992Z,11.00
2022-11-06T18:54:21.788Z,11.00
2022-11-06T18:57:07.012Z,11.00
2022-11-06T18:59:52.527Z,10.90
2022-11-06T19:02:38.433Z,10.90
2022-11-06T19:05:24.282Z,10.90
2022-11-06T19:08:10.153Z,10.90
2022-11-06T19:10:55.548Z,10.80
2022-11-06T19:13:47.268Z,10.80
2022-11-06T19:16:34.011Z,10.80
2022-11-06T19:19:25.314Z,10.70
2022-11-06T19:22:11.831Z,10.70
2022-11-06T19:24:57.323Z,10.70
2022-11-06T19:27:42.993Z,10.70
2022-11-06T19:30:28.626Z,10.60
2022-11-06T19:33:14.530Z,10.60
2022-11-06T19:36:01.893Z,10.60
2022-11-06T19:38:47.269Z,10.60
2022-11-06T19:41:33.208Z,10.50
2022-11-06T19:44:19.247Z,10.50
2022-11-06T19:47:04.751Z,10.40
2022-11-06T19:49:50.593Z,10.40
2022-11-06T19:52:43.238Z,10.40
2022-11-06T19:55:29.650Z,10.40
2022-11-06T19:58:18.197Z,10.40
2022-11-06T20:01:10.347Z,10.30
2022-11-06T20:03:56.233Z,10.30
2022-11-06T20:06:42.249Z,10.20
2022-11-06T20:09:28.911Z,10.20
2022-11-06T20:12:17.900Z,10.20
2022-11-06T20:15:03.984Z,10.20
2022-11-06T20:17:49.697Z,10.20
2022-11-06T20:20:36.572Z,10.20
2022-11-06T20:23:22.669Z,10.20
2022-11-06T20:26:08.353Z,10.10
2022-11-06T20:28:55.261Z,10.10
2022-11-06T20:31:41.976Z,10.10
2022-11-06T20:34:28.776Z,10.10
2022-11-06T20:37:14.858Z,10.10
2022-11-06T20:40:00.890Z,10.10
2022-11-06T20:42:46.762Z,10.10
2022-11-06T20:45:37.117Z,10.10
2022-11-06T20:48:22.649Z,10.00
2022-11-06T20:51:11.424Z,9.90
2022-11-06T20:53:57.302Z,9.90
2022-11-06T20:56:42.982Z,9.90
2022-11-06T20:59:28.805Z,9.90
2022-11-06T21:02:14.753Z,9.90
2022-11-06T21:05:00.596Z,9.90
2022-11-06T21:07:46.802Z,9.80
2022-11-06T21:10:32.568Z,9.80
2022-11-06T21:13:18.143Z,9.80
2022-11-06T21:16:11.936Z,9.80
2022-11-06T21:18:58.218Z,9.70
2022-11-06T21:21:44.270Z,9.70
2022-11-06T21:24:29.780Z,9.70
2022-11-06T21:27:15.320Z,9.70
2022-11-06T21:30:00.680Z,9.70
2022-11-06T21:32:46.380Z,9.60
2022-11-06T21:35:31.684Z,9.60
2022-11-06T21:38:17.208Z,9.60
2022-11-06T21:41:07.681Z,9.60
2022-11-06T21:43:53.960Z,9.60
2022-11-06T21:46:44.280Z,9.60
2022-11-06T21:49:31.428Z,9.60
2022-11-06T21:52:35.561Z,9.60
2022-11-06T21:55:39.701Z,9.70
2022-11-06T21:58:25.283Z,9.70
2022-11-06T22:01:11.137Z,9.60
2022-11-06T22:03:56.970Z,9.60
2022-11-06T22:06:43.395Z,9.60
2022-11-06T22:09:29.271Z,9.60
2022-11-06T22:12:15.899Z,9.60
2022-11-06T22:15:04.028Z,9.50
2022-11-06T22:17:49.728Z,9.50
2022-11-06T22:20:35.250Z,9.50
2022-11-06T22:23:20.953Z,9.50
2022-11-06T22:26:09.696Z,9.50
2022-11-06T22:28:57.516Z,9.50
2022-11-06T22:31:43.451Z,9.50
2022-11-06T22:34:29.192Z,9.50
2022-11-06T22:37:14.767Z,9.50
2022-11-06T22:40:00.191Z,9.50
2022-11-06T22:42:49.457Z,9.50
2022-11-06T22:45:36.852Z,9.50
2022-11-06T22:48:23.073Z,9.50
2022-11-06T22:51:15.040Z,9.40
2022-11-06T22:54:04.076Z,9.40
2022-11-06T22:56:49.557Z,9.40
2022-11-06T22:59:35.159Z,9.40
2022-11-06T23:02:21.150Z,9.40
2022-11-06T23:05:07.469Z,9.30
2022-11-06T23:07:53.350Z,9.30
2022-11-06T23:10:39.313Z,9.30
2022-11-06T23:13:25.420Z,9.20
2022-11-06T23:16:15.202Z,9.20
2022-11-06T23:19:00.674Z,9.20
2022-11-06T23:21:46.396Z,9.20
2022-11-06T23:24:31.977Z,9.20
2022-11-06T23:27:18.335Z,9.20
2022-11-06T23:30:05.301Z,9.20
2022-11-06T23:32:50.733Z,9.20
2022-11-06T23:35:36.202Z,9.20
2022-11-06T23:38:21.612Z,9.20
2022-11-06T23:41:34.208Z,9.20
2022-11-06T23:44:38.417Z,9.20
2022-11-06T23:47:24.122Z,9.10
2022-11-06T23:50:09.588Z,9.10
2022-11-06T23:52:55.475Z,9.10
2022-11-06T23:55:41.752Z,9.10
2022-11-06T23:58:27.395Z,9.10
